Time;durP1;ratioP1;P1;durP2;ratioP2;P2;SDS_P1;SDS_P2;PMS_P1;PMS_P2;Temp;Humidity;BMP_temperature;BMP_pressure;BME280_temperature;BME280_humidity;BME280_pressure;Samples;Min_cycle;Max_cycle;Signal;HPM_P1;HPM_P2
2022/10/15 00:01:18;;;;;;;18.67;14.93;;;;;;;;;;5033961;28;20064;-76
2022/10/15 00:03:43;;;;;;;20.00;15.65;;;;;;;;;;5032647;28;20018;-75
2022/10/15 00:06:10;;;;;;;21.58;14.90;;;;;;;;;;5033668;28;20037;-74
2022/10/15 00:08:36;;;;;;;23.13;16.23;;;;;;;;;;5033457;28;20032;-74
2022/10/15 00:11:06;;;;;;;24.58;15.95;;;;;;;;;;5033533;28;20022;-74
2022/10/15 00:13:32;;;;;;;21.30;14.95;;;;;;;;;;5034092;28;20025;-74
2022/10/15 00:15:58;;;;;;;22.23;15.32;;;;;;;;;;5033689;28;20041;-73
2022/10/15 00:18:23;;;;;;;25.83;15.07;;;;;;;;;;5033816;28;20021;-73
2022/10/15 00:20:48;;;;;;;23.50;15.65;;;;;;;;;;5033427;28;20029;-74
2022/10/15 00:23:14;;;;;;;21.23;15.10;;;;;;;;;;5033402;28;20420;-74
2022/10/15 00:25:41;;;;;;;21.27;14.80;;;;;;;;;;5033639;28;20053;-74
2022/10/15 00:28:06;;;;;;;20.90;15.75;;;;;;;;;;5033577;28;20036;-75
2022/10/15 00:30:32;;;;;;;22.20;14.75;;;;;;;;;;5015778;28;20026;-74
2022/10/15 00:32:57;;;;;;;21.75;15.60;;;;;;;;;;5033510;28;20026;-73
2022/10/15 00:35:23;;;;;;;21.48;14.85;;;;;;;;;;5033553;28;20053;-73
2022/10/15 00:37:48;;;;;;;19.95;14.90;;;;;;;;;;5033548;28;20029;-72
2022/10/15 00:40:14;;;;;;;19.92;14.43;;;;;;;;;;5032536;28;20034;-72
2022/10/15 00:42:39;;;;;;;20.42;14.43;;;;;;;;;;5032332;28;20026;-72
2022/10/15 00:45:08;;;;;;;20.58;14.38;;;;;;;;;;5033200;28;20037;-72
2022/10/15 00:47:37;;;;;;;21.48;14.60;;;;;;;;;;5031401;28;20025;-73
2022/10/15 00:50:08;;;;;;;18.88;14.75;;;;;;;;;;5033475;28;20075;-73
2022/10/15 00:52:37;;;;;;;21.02;14.80;;;;;;;;;;5031838;28;20036;-73
2022/10/15 00:55:09;;;;;;;19.93;15.50;;;;;;;;;;5033910;28;20025;-73
2022/10/15 00:57:35;;;;;;;22.30;15.70;;;;;;;;;;5033136;28;20751;-73
2022/10/15 01:00:04;;;;;;;19.92;14.65;;;;;;;;;;5033198;28;20013;-72
2022/10/15 01:02:30;;;;;;;19.83;15.10;;;;;;;;;;5031858;28;20076;-73
2022/10/15 01:04:55;;;;;;;22.88;14.88;;;;;;;;;;5033335;28;20053;-73
2022/10/15 01:07:20;;;;;;;18.70;14.43;;;;;;;;;;5032911;28;20112;-72
2022/10/15 01:09:46;;;;;;;18.00;14.18;;;;;;;;;;5033218;28;20064;-72
2022/10/15 01:12:22;;;;;;;19.25;13.80;;;;;;;;;;5016000;28;20036;-72
2022/10/15 01:15:11;;;;;;;19.75;13.93;;;;;;;;;;5034044;28;20032;-71
2022/10/15 01:17:49;;;;;;;18.00;13.35;;;;;;;;;;5036225;28;20076;-72
2022/10/15 01:20:34;;;;;;;20.55;14.13;;;;;;;;;;5019373;28;20481;-70
2022/10/15 01:23:19;;;;;;;18.48;13.35;;;;;;;;;;5035112;28;20067;-71
2022/10/15 01:25:44;;;;;;;21.05;14.07;;;;;;;;;;5034917;28;20041;-71
2022/10/15 01:28:22;;;;;;;19.33;14.70;;;;;;;;;;5036195;28;20049;-70
2022/10/15 01:30:50;;;;;;;23.08;14.02;;;;;;;;;;5035606;28;20412;-71
2022/10/15 01:33:30;;;;;;;23.92;15.45;;;;;;;;;;5034905;28;20072;-71
2022/10/15 01:35:56;;;;;;;20.10;15.82;;;;;;;;;;5034825;28;20492;-71
2022/10/15 01:38:21;;;;;;;19.35;15.20;;;;;;;;;;5034776;28;20022;-71
2022/10/15 01:40:49;;;;;;;23.45;15.30;;;;;;;;;;5036191;28;20385;-71
2022/10/15 01:43:19;;;;;;;20.50;15.05;;;;;;;;;;5034749;28;20133;-71
2022/10/15 01:46:07;;;;;;;20.05;14.68;;;;;;;;;;5035179;28;20045;-71
2022/10/15 01:48:56;;;;;;;23.02;15.77;;;;;;;;;;5034537;28;20021;-71
2022/10/15 01:51:23;;;;;;;21.98;15.55;;;;;;;;;;5034534;28;20056;-71
2022/10/15 01:53:49;;;;;;;23.23;15.85;;;;;;;;;;5036207;28;20087;-70
2022/10/15 01:56:18;;;;;;;20.50;15.07;;;;;;;;;;5035907;28;20021;-71
2022/10/15 01:58:43;;;;;;;22.02;15.75;;;;;;;;;;5035152;28;20022;-71
2022/10/15 02:01:10;;;;;;;20.90;14.70;;;;;;;;;;5018000;28;20037;-71
2022/10/15 02:03:42;;;;;;;19.08;14.80;;;;;;;;;;5035995;28;20148;-71
2022/10/15 02:06:12;;;;;;;21.80;14.25;;;;;;;;;;5034490;28;20034;-71
2022/10/15 02:08:43;;;;;;;20.40;15.23;;;;;;;;;;5034198;28;20013;-71
2022/10/15 02:11:14;;;;;;;20.33;14.10;;;;;;;;;;5036022;28;20116;-71
2022/10/15 02:13:54;;;;;;;20.17;15.57;;;;;;;;;;5034227;28;20025;-71
2022/10/15 02:16:20;;;;;;;;;;;;;;;;;;5035852;28;20036;-71
2022/10/15 02:18:59;;;;;;;22.17;14.80;;;;;;;;;;5035492;28;19959;-71
2022/10/15 02:21:33;;;;;;;20.05;14.00;;;;;;;;;;5034029;28;20160;-71
2022/10/15 02:24:10;;;;;;;20.17;14.50;;;;;;;;;;5034008;28;20025;-71
2022/10/15 02:26:37;;;;;;;21.50;14.63;;;;;;;;;;5033412;28;20045;-71
2022/10/15 02:29:04;;;;;;;17.98;14.45;;;;;;;;;;5035052;28;20424;-71
2022/10/15 02:31:31;;;;;;;21.65;14.48;;;;;;;;;;5035130;28;20041;-71
2022/10/15 02:34:00;;;;;;;19.10;13.93;;;;;;;;;;5033795;28;20029;-71
2022/10/15 02:36:25;;;;;;;19.30;15.05;;;;;;;;;;5034114;28;20022;-71
2022/10/15 02:38:53;;;;;;;18.70;14.75;;;;;;;;;;5035379;28;20014;-70
2022/10/15 02:41:19;;;;;;;22.85;14.93;;;;;;;;;;5035135;28;20033;-71
2022/10/15 02:43:47;;;;;;;18.63;14.32;;;;;;;;;;5034434;28;20371;-71
2022/10/15 02:46:13;;;;;;;21.83;14.77;;;;;;;;;;5033835;28;20116;-71
2022/10/15 02:48:40;;;;;;;20.13;13.45;;;;;;;;;;5016890;28;20113;-71
2022/10/15 02:51:13;;;;;;;20.05;13.82;;;;;;;;;;5044526;23;20044;-71
2022/10/15 02:53:55;;;;;;;18.70;13.98;;;;;;;;;;5061914;22;20072;-70
2022/10/15 02:56:21;;;;;;;20.30;14.40;;;;;;;;;;5054578;22;21167;-71
2022/10/15 02:58:46;;;;;;;20.08;14.40;;;;;;;;;;5107919;22;20050;-72
2022/10/15 03:01:12;;;;;;;18.40;14.07;;;;;;;;;;5087480;22;20048;-72
2022/10/15 03:04:10;;;;;;;19.15;14.13;;;;;;;;;;5098970;22;20052;-71
2022/10/15 03:06:36;;;;;;;18.25;13.45;;;;;;;;;;5098294;22;20496;-72
2022/10/15 03:09:02;;;;;;;18.08;13.80;;;;;;;;;;5083903;22;20147;-93
2022/10/15 03:11:29;;;;;;;19.88;14.40;;;;;;;;;;5040706;28;20479;-92
2022/10/15 03:13:55;;;;;;;17.98;13.50;;;;;;;;;;5041431;28;20027;-91
2022/10/15 03:16:21;;;;;;;20.58;13.48;;;;;;;;;;5040267;28;20035;-91
2022/10/15 03:18:46;;;;;;;21.85;13.80;;;;;;;;;;5040876;28;20028;-91
2022/10/15 03:21:11;;;;;;;18.92;14.10;;;;;;;;;;5039690;28;20475;-91
2022/10/15 03:23:38;;;;;;;19.98;14.30;;;;;;;;;;5040825;28;20111;-91
2022/10/15 03:26:08;;;;;;;20.80;14.02;;;;;;;;;;5041194;28;20020;-91
2022/10/15 03:28:34;;;;;;;16.38;13.60;;;;;;;;;;5023849;28;20041;-91
2022/10/15 03:30:59;;;;;;;20.45;14.43;;;;;;;;;;5040095;28;20028;-92
2022/10/15 03:33:25;;;;;;;23.20;14.55;;;;;;;;;;5040108;28;20111;-91
2022/10/15 03:35:52;;;;;;;18.27;13.98;;;;;;;;;;5040329;28;20031;-91
2022/10/15 03:38:18;;;;;;;19.08;13.77;;;;;;;;;;5039711;28;20024;-93
2022/10/15 03:40:46;;;;;;;18.33;13.90;;;;;;;;;;5039822;28;20475;-92
2022/10/15 03:43:22;;;;;;;19.90;13.80;;;;;;;;;;5040604;28;20021;-92
2022/10/15 03:45:47;;;;;;;21.38;14.18;;;;;;;;;;5039863;28;20434;-91
2022/10/15 03:48:18;;;;;;;19.48;13.35;;;;;;;;;;5039824;28;20455;-93
2022/10/15 03:50:46;;;;;;;19.00;13.00;;;;;;;;;;5040516;28;20016;-91
2022/10/15 03:53:13;;;;;;;17.60;13.70;;;;;;;;;;5040430;28;20013;-92
2022/10/15 03:55:38;;;;;;;18.02;14.07;;;;;;;;;;5040240;28;20074;-94
2022/10/15 03:58:04;;;;;;;19.63;14.65;;;;;;;;;;5039968;28;20054;-92
2022/10/15 04:00:29;;;;;;;20.75;13.82;;;;;;;;;;5023616;28;20029;-92
2022/10/15 04:02:58;;;;;;;19.80;13.90;;;;;;;;;;5040428;28;20017;-93
2022/10/15 04:05:27;;;;;;;19.02;13.68;;;;;;;;;;5040240;28;20082;-90
2022/10/15 04:07:59;;;;;;;18.48;14.30;;;;;;;;;;5057417;28;20052;-89
2022/10/15 04:10:28;;;;;;;18.83;13.40;;;;;;;;;;5040002;28;20021;-89
2022/10/15 04:12:53;;;;;;;18.88;13.23;;;;;;;;;;5039774;28;20021;-92
2022/10/15 04:15:19;;;;;;;17.98;13.60;;;;;;;;;;5039928;28;20139;-92
2022/10/15 04:17:54;;;;;;;20.40;13.70;;;;;;;;;;5041685;28;20024;-92
2022/10/15 04:20:21;;;;;;;21.42;13.70;;;;;;;;;;5040157;28;20035;-92
2022/10/15 04:22:47;;;;;;;18.73;13.18;;;;;;;;;;5040052;28;20020;-92
2022/10/15 04:25:13;;;;;;;18.15;13.20;;;;;;;;;;5040147;28;20024;-93
2022/10/15 04:27:39;;;;;;;18.65;14.00;;;;;;;;;;5039737;28;20048;-93
2022/10/15 04:30:08;;;;;;;18.55;13.57;;;;;;;;;;5040125;28;20025;-93
2022/10/15 04:32:36;;;;;;;18.90;13.52;;;;;;;;;;5040218;28;20208;-91
2022/10/15 04:35:02;;;;;;;18.40;13.88;;;;;;;;;;5039099;28;20119;-92
2022/10/15 04:49:09;;;;;;;17.83;13.77;;;;;;;;;;5057591;28;20482;-91
2022/10/15 04:59:47;;;;;;;;;;;;;;;;;;;;;
2022/10/15 05:17:58;;;;;;;18.93;14.57;;;;;;;;;;4953671;29;20043;-92
2022/10/15 05:20:47;;;;;;;18.95;15.25;;;;;;;;;;5018596;28;20486;-91
2022/10/15 05:23:16;;;;;;;17.73;13.63;;;;;;;;;;5019544;28;20022;-89
2022/10/15 05:25:49;;;;;;;15.13;11.98;;;;;;;;;;5036995;28;20022;-93
2022/10/15 05:28:19;;;;;;;18.63;13.38;;;;;;;;;;5019941;28;20026;-90
2022/10/15 05:30:46;;;;;;;19.65;14.05;;;;;;;;;;5036219;28;20030;-92
2022/10/15 05:33:12;;;;;;;17.23;13.85;;;;;;;;;;5019480;28;20026;-90
2022/10/15 05:35:38;;;;;;;16.45;13.27;;;;;;;;;;5019464;28;20030;-93
2022/10/15 05:38:03;;;;;;;21.08;13.35;;;;;;;;;;5019396;28;20017;-91
2022/10/15 05:40:29;;;;;;;18.15;14.25;;;;;;;;;;5035553;28;20033;-89
2022/10/15 05:43:04;;;;;;;16.35;12.43;;;;;;;;;;5019439;28;20013;-89
2022/10/15 05:45:30;;;;;;;16.38;12.43;;;;;;;;;;5018163;28;20086;-90
2022/10/15 05:48:00;;;;;;;14.00;11.65;;;;;;;;;;5018802;28;20056;-91
2022/10/15 05:50:30;;;;;;;14.60;11.50;;;;;;;;;;5018805;28;20033;-94
2022/10/15 05:53:24;;;;;;;;;;;;;;;;;;;;;
2022/10/15 05:55:57;;;;;;;15.90;13.00;;;;;;;;;;5035183;28;20570;-94
2022/10/15 05:58:32;;;;;;;18.42;13.63;;;;;;;;;;5019786;28;20476;-92
2022/10/15 06:01:01;;;;;;;16.17;12.60;;;;;;;;;;5018594;28;20040;-92
2022/10/15 06:03:34;;;;;;;18.17;14.32;;;;;;;;;;5019714;28;20033;-92
2022/10/15 06:06:06;;;;;;;18.95;14.40;;;;;;;;;;5019348;28;20464;-93
2022/10/15 06:08:34;;;;;;;24.30;17.05;;;;;;;;;;5027012;28;20057;-93
2022/10/15 06:11:03;;;;;;;32.22;22.45;;;;;;;;;;5037725;28;20506;-92
2022/10/15 06:13:28;;;;;;;55.47;37.33;;;;;;;;;;5038255;28;20116;-94
2022/10/15 06:15:54;;;;;;;22.55;17.17;;;;;;;;;;5038740;28;20060;-93
2022/10/15 06:18:26;;;;;;;23.63;19.02;;;;;;;;;;5039481;28;20025;-92
2022/10/15 06:20:52;;;;;;;20.15;14.43;;;;;;;;;;5033232;28;20456;-93
2022/10/15 06:23:23;;;;;;;25.33;18.98;;;;;;;;;;5035065;28;20013;-94
2022/10/15 06:26:06;;;;;;;23.95;18.02;;;;;;;;;;5034911;28;20033;-92
2022/10/15 06:28:52;;;;;;;16.85;13.73;;;;;;;;;;5035386;28;20029;-93
2022/10/15 06:31:56;;;;;;;16.90;13.18;;;;;;;;;;5028541;28;20025;-94
2022/10/15 06:34:30;;;;;;;17.20;12.55;;;;;;;;;;5030849;28;20036;-93
2022/10/15 06:36:57;;;;;;;16.52;12.57;;;;;;;;;;5055383;28;20029;-93
2022/10/15 06:39:27;;;;;;;15.32;12.55;;;;;;;;;;5055243;28;20017;-94
2022/10/15 06:42:00;;;;;;;15.80;13.10;;;;;;;;;;5054968;28;20029;-92
2022/10/15 06:54:13;;;;;;;19.48;13.70;;;;;;;;;;5001181;28;20121;-93
2022/10/15 07:04:33;;;;;;;24.60;13.77;;;;;;;;;;5035632;28;20044;-94
2022/10/15 07:07:15;;;;;;;16.83;13.13;;;;;;;;;;5016093;28;20037;-92
2022/10/15 07:09:43;;;;;;;17.98;13.25;;;;;;;;;;5017486;28;20144;-92
2022/10/15 07:12:14;;;;;;;17.63;12.77;;;;;;;;;;5034456;28;20030;-90
2022/10/15 07:14:42;;;;;;;;;;;;;;;;;;5002844;28;20029;-92
2022/10/15 07:21:01;;;;;;;16.30;12.68;;;;;;;;;;5033697;28;20044;-91
2022/10/15 07:23:39;;;;;;;17.20;12.18;;;;;;;;;;5017082;28;20030;-92
2022/10/15 07:26:21;;;;;;;16.40;13.00;;;;;;;;;;5034894;28;20075;-94
2022/10/15 07:36:41;;;;;;;16.17;11.60;;;;;;;;;;4977305;28;20102;-93
2022/10/15 07:39:29;;;;;;;17.30;12.18;;;;;;;;;;4955536;28;20129;-94
2022/10/15 07:42:02;;;;;;;17.42;12.25;;;;;;;;;;4992100;28;20076;-92
2022/10/15 07:44:36;;;;;;;16.48;12.48;;;;;;;;;;5023818;28;20048;-92
2022/10/15 07:55:14;;;;;;;17.02;11.82;;;;;;;;;;5048457;28;20033;-93
2022/10/15 08:07:55;;;;;;;16.48;12.50;;;;;;;;;;5010575;28;20521;-69
2022/10/15 08:10:20;;;;;;;14.15;11.35;;;;;;;;;;5011947;28;20101;-69
2022/10/15 08:12:46;;;;;;;15.43;12.20;;;;;;;;;;5012220;28;20026;-69
2022/10/15 08:15:11;;;;;;;14.38;11.52;;;;;;;;;;5012281;28;20041;-69
2022/10/15 08:17:37;;;;;;;11.68;10.10;;;;;;;;;;5012397;28;20030;-69
2022/10/15 08:20:02;;;;;;;14.63;11.10;;;;;;;;;;5044972;28;20113;-69
2022/10/15 08:22:28;;;;;;;11.98;10.45;;;;;;;;;;5013215;28;20021;-69
2022/10/15 08:24:54;;;;;;;13.38;9.88;;;;;;;;;;5015921;28;20026;-69
2022/10/15 08:27:19;;;;;;;10.13;8.65;;;;;;;;;;5017130;28;20044;-70
2022/10/15 08:29:45;;;;;;;11.20;8.32;;;;;;;;;;5017479;28;20489;-70
2022/10/15 08:32:11;;;;;;;9.73;8.73;;;;;;;;;;5017179;28;20018;-69
2022/10/15 08:34:37;;;;;;;10.05;8.65;;;;;;;;;;5016956;28;20076;-70
2022/10/15 08:37:02;;;;;;;11.77;8.57;;;;;;;;;;5017120;28;20401;-70
2022/10/15 08:39:28;;;;;;;12.82;11.52;;;;;;;;;;5031709;28;20068;-70
2022/10/15 08:41:56;;;;;;;10.82;8.75;;;;;;;;;;5016968;28;20022;-70
2022/10/15 08:44:29;;;;;;;13.95;11.18;;;;;;;;;;5016550;28;20029;-69
2022/10/15 08:47:17;;;;;;;15.75;9.40;;;;;;;;;;5014167;28;20026;-70
2022/10/15 08:49:48;;;;;;;11.63;9.45;;;;;;;;;;5014433;28;20215;-70
2022/10/15 08:52:20;;;;;;;9.23;8.27;;;;;;;;;;5015739;28;20030;-70
2022/10/15 08:54:45;;;;;;;11.35;8.70;;;;;;;;;;5014993;28;20026;-70
2022/10/15 08:57:16;;;;;;;10.60;9.50;;;;;;;;;;5014264;28;20484;-70
2022/10/15 08:59:47;;;;;;;11.60;9.00;;;;;;;;;;5013708;28;20238;-70
2022/10/15 09:02:16;;;;;;;9.80;7.43;;;;;;;;;;5014790;28;20038;-70
2022/10/15 09:04:47;;;;;;;11.48;8.23;;;;;;;;;;5013566;28;20223;-70
2022/10/15 09:07:15;;;;;;;13.13;8.73;;;;;;;;;;5029724;28;20046;-70
2022/10/15 09:09:47;;;;;;;10.73;8.38;;;;;;;;;;5014921;28;20038;-70
2022/10/15 09:12:31;;;;;;;10.10;8.20;;;;;;;;;;5015602;28;20069;-70
2022/10/15 09:14:58;;;;;;;9.63;7.53;;;;;;;;;;5015410;28;20036;-69
2022/10/15 09:17:27;;;;;;;11.40;8.50;;;;;;;;;;5015522;28;20021;-70
2022/10/15 09:19:54;;;;;;;10.10;7.88;;;;;;;;;;5015389;28;20030;-69
2022/10/15 09:22:23;;;;;;;10.00;7.78;;;;;;;;;;5015352;28;20394;-69
2022/10/15 09:24:48;;;;;;;8.60;7.70;;;;;;;;;;5015067;28;20030;-70
2022/10/15 09:27:20;;;;;;;7.22;6.55;;;;;;;;;;5015273;28;20029;-69
2022/10/15 09:29:56;;;;;;;8.05;7.25;;;;;;;;;;5030695;28;20038;-70
2022/10/15 09:32:26;;;;;;;12.57;8.65;;;;;;;;;;5030448;28;20022;-70
2022/10/15 09:34:57;;;;;;;8.48;7.60;;;;;;;;;;5015170;28;20018;-70
2022/10/15 09:37:22;;;;;;;10.80;8.25;;;;;;;;;;5015699;28;20398;-70
2022/10/15 09:40:13;;;;;;;13.07;9.23;;;;;;;;;;5014626;28;20469;-69
2022/10/15 09:42:40;;;;;;;8.15;6.45;;;;;;;;;;5016082;28;20361;-70
2022/10/15 09:45:11;;;;;;;9.32;7.25;;;;;;;;;;5031301;28;20362;-69
2022/10/15 09:47:38;;;;;;;8.52;7.60;;;;;;;;;;5015887;28;20025;-70
2022/10/15 09:50:06;;;;;;;8.27;6.80;;;;;;;;;;5015713;28;20017;-70
2022/10/15 09:52:43;;;;;;;10.07;7.55;;;;;;;;;;5015794;28;20034;-70
2022/10/15 09:55:09;;;;;;;9.20;7.93;;;;;;;;;;5031162;28;20061;-70
2022/10/15 09:57:36;;;;;;;10.68;8.57;;;;;;;;;;5015949;28;20103;-69
2022/10/15 10:00:04;;;;;;;11.93;8.10;;;;;;;;;;5014911;28;20029;-70
2022/10/15 10:02:37;;;;;;;8.48;6.32;;;;;;;;;;5015312;28;20351;-70
2022/10/15 10:05:17;;;;;;;8.48;7.20;;;;;;;;;;5014582;28;20040;-70
2022/10/15 10:07:43;;;;;;;9.55;6.75;;;;;;;;;;5014386;28;20128;-70
2022/10/15 10:10:23;;;;;;;8.75;7.85;;;;;;;;;;5014405;28;20053;-70
2022/10/15 10:12:48;;;;;;;;;;;;;;;;;;5014675;28;20032;-70
2022/10/15 10:15:21;;;;;;;7.03;6.07;;;;;;;;;;4996874;28;20429;-70
2022/10/15 10:17:53;;;;;;;8.85;6.63;;;;;;;;;;5029263;28;20038;-70
2022/10/15 10:20:20;;;;;;;7.60;5.80;;;;;;;;;;4996483;28;20176;-70
2022/10/15 10:22:52;;;;;;;7.63;6.88;;;;;;;;;;5013940;28;20092;-70
2022/10/15 10:25:36;;;;;;;9.85;6.97;;;;;;;;;;5029355;28;20100;-70
2022/10/15 10:28:02;;;;;;;5.25;4.55;;;;;;;;;;5013031;28;20432;-70
2022/10/15 10:30:31;;;;;;;8.65;7.03;;;;;;;;;;5014025;28;20101;-70
2022/10/15 10:32:58;;;;;;;8.95;7.07;;;;;;;;;;5013868;28;20033;-70
2022/10/15 10:35:24;;;;;;;7.65;6.45;;;;;;;;;;5014115;28;20462;-69
2022/10/15 10:37:49;;;;;;;8.63;7.75;;;;;;;;;;5013838;28;20414;-70
2022/10/15 10:40:25;;;;;;;8.40;6.32;;;;;;;;;;5013818;28;20014;-70
2022/10/15 10:43:09;;;;;;;8.80;6.03;;;;;;;;;;5013741;28;20030;-70
2022/10/15 10:45:34;;;;;;;6.70;5.97;;;;;;;;;;5013787;28;20026;-70
2022/10/15 10:48:16;;;;;;;7.28;6.47;;;;;;;;;;5011776;28;20022;-70
2022/10/15 10:50:42;;;;;;;7.47;6.68;;;;;;;;;;5013899;28;20032;-70
2022/10/15 10:53:21;;;;;;;7.07;5.85;;;;;;;;;;5012310;28;20025;-70
2022/10/15 10:55:47;;;;;;;6.97;6.28;;;;;;;;;;5013752;28;20409;-70
2022/10/15 10:58:20;;;;;;;8.50;6.25;;;;;;;;;;5028771;28;20355;-69
2022/10/15 11:00:47;;;;;;;7.35;5.45;;;;;;;;;;5013623;28;20034;-69
2022/10/15 11:03:30;;;;;;;5.75;4.95;;;;;;;;;;5013304;28;20025;-70
2022/10/15 11:06:04;;;;;;;7.75;5.82;;;;;;;;;;5028372;28;20029;-70
2022/10/15 11:08:29;;;;;;;8.02;6.43;;;;;;;;;;5028534;28;20124;-70
2022/10/15 11:10:57;;;;;;;8.15;6.38;;;;;;;;;;5013464;28;20101;-69
2022/10/15 11:13:32;;;;;;;7.85;6.28;;;;;;;;;;5013388;28;20508;-70
2022/10/15 11:16:00;;;;;;;8.07;6.70;;;;;;;;;;5013453;28;20555;-70
2022/10/15 11:18:25;;;;;;;7.68;6.35;;;;;;;;;;5013283;28;20037;-70
2022/10/15 11:21:00;;;;;;;9.23;7.07;;;;;;;;;;5013393;28;20042;-70
2022/10/15 11:23:37;;;;;;;9.05;6.22;;;;;;;;;;5012854;28;20037;-70
2022/10/15 11:26:06;;;;;;;8.30;5.97;;;;;;;;;;5013094;28;20037;-70
2022/10/15 11:28:43;;;;;;;7.93;6.78;;;;;;;;;;5028264;28;20480;-70
2022/10/15 11:31:18;;;;;;;9.63;7.85;;;;;;;;;;5028138;28;20029;-70
2022/10/15 11:33:50;;;;;;;7.70;6.28;;;;;;;;;;5013013;28;20466;-70
2022/10/15 11:36:25;;;;;;;8.57;5.43;;;;;;;;;;5012768;28;20057;-70
2022/10/15 11:38:56;;;;;;;8.07;7.30;;;;;;;;;;5012653;28;20103;-70
2022/10/15 11:41:28;;;;;;;11.55;7.35;;;;;;;;;;5013400;28;20105;-70
2022/10/15 11:44:08;;;;;;;11.73;6.63;;;;;;;;;;5013933;28;20041;-70
2022/10/15 11:46:54;;;;;;;6.88;6.30;;;;;;;;;;5013747;28;20088;-70
2022/10/15 11:49:23;;;;;;;7.72;6.75;;;;;;;;;;5028495;28;20117;-70
2022/10/15 11:51:59;;;;;;;6.60;5.93;;;;;;;;;;5028739;28;20021;-70
2022/10/15 11:54:24;;;;;;;8.48;6.57;;;;;;;;;;5028756;28;20037;-70
2022/10/15 11:56:52;;;;;;;11.73;6.80;;;;;;;;;;5013614;28;20022;-70
2022/10/15 11:59:29;;;;;;;8.60;6.45;;;;;;;;;;5012414;28;20319;-70
2022/10/15 12:02:15;;;;;;;7.82;6.28;;;;;;;;;;5027932;28;20030;-70
2022/10/15 12:04:44;;;;;;;7.07;5.38;;;;;;;;;;5008633;28;20046;-69
2022/10/15 12:07:14;;;;;;;6.40;5.85;;;;;;;;;;5027494;28;20050;-70
2022/10/15 12:09:39;;;;;;;;;;;;;;;;;;5012780;28;20045;-70
2022/10/15 12:12:23;;;;;;;5.85;5.28;;;;;;;;;;5011555;28;19906;-70
2022/10/15 12:15:00;;;;;;;5.75;5.25;;;;;;;;;;5012071;28;20026;-70
2022/10/15 12:17:28;;;;;;;5.80;5.10;;;;;;;;;;5012490;28;20037;-70
2022/10/15 12:19:55;;;;;;;6.50;5.30;;;;;;;;;;5012590;28;20065;-70
2022/10/15 12:22:31;;;;;;;7.80;5.55;;;;;;;;;;5011376;28;20044;-69
2022/10/15 12:24:56;;;;;;;5.63;4.80;;;;;;;;;;5012379;28;20038;-70
2022/10/15 12:27:29;;;;;;;5.03;4.40;;;;;;;;;;5012157;28;20072;-69
2022/10/15 12:30:06;;;;;;;5.97;4.82;;;;;;;;;;5011956;28;20045;-70
2022/10/15 12:32:46;;;;;;;5.70;4.40;;;;;;;;;;5012638;28;20030;-70
2022/10/15 12:35:14;;;;;;;4.95;4.40;;;;;;;;;;5012620;28;20496;-69
2022/10/15 12:37:42;;;;;;;5.20;4.80;;;;;;;;;;5027907;28;20026;-70
2022/10/15 12:40:28;;;;;;;5.28;4.78;;;;;;;;;;5011203;28;20025;-70
2022/10/15 12:42:58;;;;;;;5.28;4.78;;;;;;;;;;5012000;28;20042;-70
2022/10/15 12:45:37;;;;;;;8.07;4.90;;;;;;;;;;5027281;28;20030;-70
2022/10/15 12:48:02;;;;;;;5.38;4.53;;;;;;;;;;5011937;28;20061;-70
2022/10/15 12:50:31;;;;;;;6.32;4.70;;;;;;;;;;5012160;28;20060;-70
2022/10/15 12:53:01;;;;;;;8.18;5.13;;;;;;;;;;5012042;28;20026;-70
2022/10/15 12:55:28;;;;;;;5.60;5.05;;;;;;;;;;5011733;28;20038;-70
2022/10/15 12:57:53;;;;;;;5.97;4.63;;;;;;;;;;5010763;28;20377;-70
2022/10/15 13:00:25;;;;;;;5.22;4.63;;;;;;;;;;5027302;28;20030;-70
2022/10/15 13:02:51;;;;;;;7.80;4.75;;;;;;;;;;5027172;28;20087;-70
2022/10/15 13:05:27;;;;;;;6.50;5.15;;;;;;;;;;5027172;28;20018;-70
2022/10/15 13:07:54;;;;;;;5.50;5.00;;;;;;;;;;5011491;28;20041;-70
2022/10/15 13:10:38;;;;;;;5.93;4.68;;;;;;;;;;5013268;28;20026;-69
2022/10/15 13:13:06;;;;;;;6.65;5.10;;;;;;;;;;5015366;28;20026;-69
2022/10/15 13:15:33;;;;;;;4.35;4.00;;;;;;;;;;5015638;28;20025;-70
2022/10/15 13:17:59;;;;;;;5.63;4.78;;;;;;;;;;5015393;28;20026;-70
2022/10/15 13:20:29;;;;;;;4.55;4.15;;;;;;;;;;5015327;28;20048;-70
2022/10/15 13:23:15;;;;;;;4.57;4.22;;;;;;;;;;5015198;28;20033;-69
2022/10/15 13:25:40;;;;;;;6.22;4.63;;;;;;;;;;5006942;28;20038;-70
2022/10/15 13:28:24;;;;;;;6.85;5.07;;;;;;;;;;5015204;28;20395;-70
2022/10/15 13:30:50;;;;;;;9.65;5.88;;;;;;;;;;5014349;28;20429;-68
2022/10/15 13:33:20;;;;;;;8.82;6.40;;;;;;;;;;5030358;28;20018;-68
2022/10/15 13:35:45;;;;;;;4.68;3.83;;;;;;;;;;5014861;28;20033;-68
2022/10/15 13:38:21;;;;;;;13.63;6.75;;;;;;;;;;5015164;28;20026;-68
2022/10/15 13:40:47;;;;;;;9.90;5.50;;;;;;;;;;5014997;28;20079;-68
2022/10/15 13:43:20;;;;;;;7.95;6.20;;;;;;;;;;5015116;28;20481;-69
2022/10/15 13:45:52;;;;;;;9.38;6.18;;;;;;;;;;5014988;28;20502;-69
2022/10/15 13:48:22;;;;;;;7.90;5.30;;;;;;;;;;5014479;28;20038;-77
2022/10/15 13:50:48;;;;;;;;;;;;;;;;;;5015314;28;20041;-69
2022/10/15 13:53:27;;;;;;;5.88;5.32;;;;;;;;;;5015094;28;19906;-69
2022/10/15 13:55:53;;;;;;;7.70;5.18;;;;;;;;;;5013793;28;20030;-69
2022/10/15 13:58:20;;;;;;;9.63;6.63;;;;;;;;;;5014766;28;20068;-69
2022/10/15 14:00:54;;;;;;;8.13;6.35;;;;;;;;;;5014590;28;20026;-69
2022/10/15 14:03:21;;;;;;;6.72;5.32;;;;;;;;;;5014498;28;20037;-69
2022/10/15 14:05:48;;;;;;;6.93;5.35;;;;;;;;;;5014598;28;20041;-69
2022/10/15 14:08:15;;;;;;;8.38;5.55;;;;;;;;;;5029808;28;20044;-69
2022/10/15 14:10:40;;;;;;;7.60;5.55;;;;;;;;;;5014244;28;20030;-71
2022/10/15 14:13:09;;;;;;;6.97;5.63;;;;;;;;;;5029570;28;20038;-69
2022/10/15 14:15:39;;;;;;;9.75;5.40;;;;;;;;;;5014094;28;20393;-69
2022/10/15 14:18:05;;;;;;;6.60;5.45;;;;;;;;;;5014406;28;20389;-69
2022/10/15 14:20:30;;;;;;;9.35;6.18;;;;;;;;;;5014399;28;20362;-71
2022/10/15 14:22:56;;;;;;;15.68;7.57;;;;;;;;;;5013484;28;20105;-68
2022/10/15 14:25:23;;;;;;;12.05;7.90;;;;;;;;;;5013994;28;20536;-68
2022/10/15 14:27:49;;;;;;;9.55;7.57;;;;;;;;;;5012657;28;20030;-68
2022/10/15 14:30:20;;;;;;;8.70;7.07;;;;;;;;;;5013994;28;20458;-68
2022/10/15 14:32:47;;;;;;;35.55;19.85;;;;;;;;;;5014122;28;20022;-69
2022/10/15 14:35:22;;;;;;;36.47;23.85;;;;;;;;;;5014095;28;20018;-68
2022/10/15 14:37:57;;;;;;;16.15;9.82;;;;;;;;;;5013921;28;20038;-69
2022/10/15 14:40:22;;;;;;;30.25;18.33;;;;;;;;;;5013893;28;20433;-69
2022/10/15 14:43:01;;;;;;;25.25;13.20;;;;;;;;;;5013142;28;20017;-68
2022/10/15 14:45:28;;;;;;;22.17;13.98;;;;;;;;;;5012676;28;20037;-71
2022/10/15 14:47:55;;;;;;;28.67;17.95;;;;;;;;;;5013839;28;20104;-71
2022/10/15 14:50:26;;;;;;;22.40;13.82;;;;;;;;;;5013442;28;20389;-71
2022/10/15 14:52:52;;;;;;;48.05;23.15;;;;;;;;;;5013480;28;20038;-73
2022/10/15 14:55:26;;;;;;;43.97;23.05;;;;;;;;;;5013720;28;20022;-68
2022/10/15 14:57:51;;;;;;;35.25;20.20;;;;;;;;;;5012503;28;20022;-67
2022/10/15 15:00:28;;;;;;;20.20;14.73;;;;;;;;;;5014851;28;20093;-68
2022/10/15 15:02:57;;;;;;;25.55;15.95;;;;;;;;;;5015134;28;20121;-68
2022/10/15 15:05:24;;;;;;;16.08;10.93;;;;;;;;;;5015113;28;20101;-68
2022/10/15 15:07:50;;;;;;;29.70;20.92;;;;;;;;;;5013183;28;20042;-68
2022/10/15 15:10:15;;;;;;;22.55;16.33;;;;;;;;;;5014830;28;20072;-68
2022/10/15 15:12:53;;;;;;;16.52;11.68;;;;;;;;;;5014137;28;20040;-68
2022/10/15 15:15:20;;;;;;;12.38;9.07;;;;;;;;;;5014630;28;20022;-68
2022/10/15 15:17:47;;;;;;;14.73;8.15;;;;;;;;;;5013823;28;20014;-68
2022/10/15 15:20:13;;;;;;;11.77;8.45;;;;;;;;;;5012475;28;20068;-68
2022/10/15 15:22:39;;;;;;;15.60;10.40;;;;;;;;;;5012691;28;20030;-68
2022/10/15 15:25:24;;;;;;;11.63;9.50;;;;;;;;;;5012573;28;20026;-68
2022/10/15 15:27:50;;;;;;;12.93;9.48;;;;;;;;;;5012544;28;20034;-67
2022/10/15 15:30:17;;;;;;;16.33;11.15;;;;;;;;;;5013664;28;20049;-68
2022/10/15 15:32:43;;;;;;;15.80;10.93;;;;;;;;;;5013976;28;20054;-68
2022/10/15 15:35:13;;;;;;;13.32;9.20;;;;;;;;;;5014561;28;20076;-68
2022/10/15 15:37:39;;;;;;;;;;;;;;;;;;5014696;28;20037;-68
2022/10/15 15:40:05;;;;;;;15.63;10.30;;;;;;;;;;5014281;28;19906;-68
2022/10/15 15:42:30;;;;;;;21.90;13.20;;;;;;;;;;5014169;28;20065;-68
2022/10/15 15:44:55;;;;;;;14.25;9.50;;;;;;;;;;5014451;28;20053;-68
2022/10/15 15:47:21;;;;;;;11.18;9.10;;;;;;;;;;5014121;28;20539;-68
2022/10/15 15:49:46;;;;;;;10.57;7.35;;;;;;;;;;5014319;28;20029;-68
2022/10/15 15:52:12;;;;;;;10.18;7.85;;;;;;;;;;5029227;28;20033;-68
2022/10/15 15:54:41;;;;;;;9.63;8.05;;;;;;;;;;5014013;28;20028;-68
2022/10/15 15:57:06;;;;;;;11.90;8.30;;;;;;;;;;5014277;28;20030;-68
2022/10/15 15:59:32;;;;;;;12.27;8.63;;;;;;;;;;5013995;28;20021;-67
2022/10/15 16:01:58;;;;;;;13.23;9.75;;;;;;;;;;5013944;28;20072;-68
2022/10/15 16:04:23;;;;;;;15.32;10.00;;;;;;;;;;5014471;28;20067;-68
2022/10/15 16:06:49;;;;;;;12.35;10.50;;;;;;;;;;5013707;28;20117;-67
2022/10/15 16:09:15;;;;;;;13.00;9.95;;;;;;;;;;5013799;28;20478;-67
2022/10/15 16:11:40;;;;;;;14.52;10.75;;;;;;;;;;5012948;28;20086;-68